sensor_id;sensor_type;location;lat;lon;timestamp;P1;durP1;ratioP1;P2;durP2;ratioP2
20531;SDS011;10424;52.102;8.084;2023-06-14T00:01:57;6.47;;;2.88;;
20531;SDS011;10424;52.102;8.084;2023-06-14T00:04:24;4.38;;;2.70;;
20531;SDS011;10424;52.102;8.084;2023-06-14T00:06:51;6.40;;;3.03;;
20531;SDS011;10424;52.102;8.084;2023-06-14T00:09:18;5.00;;;2.60;;
20531;SDS011;10424;52.102;8.084;2023-06-14T00:11:46;3.95;;;3.00;;
20531;SDS011;10424;52.102;8.084;2023-06-14T00:14:14;4.57;;;2.97;;
20531;SDS011;10424;52.102;8.084;2023-06-14T00:16:42;8.20;;;3.03;;
20531;SDS011;10424;52.102;8.084;2023-06-14T00:19:09;6.22;;;2.72;;
20531;SDS011;10424;52.102;8.084;2023-06-14T00:21:36;6.05;;;3.22;;
20531;SDS011;10424;52.102;8.084;2023-06-14T00:24:04;4.82;;;2.90;;
20531;SDS011;10424;52.102;8.084;2023-06-14T00:26:31;4.97;;;3.05;;
20531;SDS011;10424;52.102;8.084;2023-06-14T00:28:58;4.65;;;3.00;;
20531;SDS011;10424;52.102;8.084;2023-06-14T00:31:27;5.45;;;3.00;;
20531;SDS011;10424;52.102;8.084;2023-06-14T00:33:54;5.00;;;2.70;;
20531;SDS011;10424;52.102;8.084;2023-06-14T00:36:22;4.38;;;2.85;;
20531;SDS011;10424;52.102;8.084;2023-06-14T00:38:49;4.50;;;2.75;;
20531;SDS011;10424;52.102;8.084;2023-06-14T00:41:16;4.68;;;3.15;;
20531;SDS011;10424;52.102;8.084;2023-06-14T00:43:43;4.70;;;3.05;;
20531;SDS011;10424;52.102;8.084;2023-06-14T00:46:11;8.60;;;3.20;;
20531;SDS011;10424;52.102;8.084;2023-06-14T00:48:39;4.15;;;2.88;;
20531;SDS011;10424;52.102;8.084;2023-06-14T00:51:07;4.57;;;2.97;;
20531;SDS011;10424;52.102;8.084;2023-06-14T00:53:34;3.72;;;2.70;;
20531;SDS011;10424;52.102;8.084;2023-06-14T00:56:02;4.40;;;2.85;;
20531;SDS011;10424;52.102;8.084;2023-06-14T00:58:29;5.57;;;3.00;;
20531;SDS011;10424;52.102;8.084;2023-06-14T01:00:57;6.65;;;2.80;;
20531;SDS011;10424;52.102;8.084;2023-06-14T01:03:24;3.45;;;2.70;;
20531;SDS011;10424;52.102;8.084;2023-06-14T01:05:56;4.65;;;2.80;;
20531;SDS011;10424;52.102;8.084;2023-06-14T01:08:28;4.25;;;2.63;;
20531;SDS011;10424;52.102;8.084;2023-06-14T01:11:00;6.28;;;3.00;;
20531;SDS011;10424;52.102;8.084;2023-06-14T01:13:32;5.03;;;2.92;;
20531;SDS011;10424;52.102;8.084;2023-06-14T01:16:00;5.85;;;3.05;;
20531;SDS011;10424;52.102;8.084;2023-06-14T01:18:28;5.03;;;3.03;;
20531;SDS011;10424;52.102;8.084;2023-06-14T01:20:57;7.00;;;3.00;;
20531;SDS011;10424;52.102;8.084;2023-06-14T01:23:26;6.25;;;3.08;;
20531;SDS011;10424;52.102;8.084;2023-06-14T01:25:57;4.57;;;2.90;;
20531;SDS011;10424;52.102;8.084;2023-06-14T01:28:25;4.40;;;2.67;;
20531;SDS011;10424;52.102;8.084;2023-06-14T01:30:57;7.75;;;3.08;;
20531;SDS011;10424;52.102;8.084;2023-06-14T01:35:54;5.57;;;2.83;;
20531;SDS011;10424;52.102;8.084;2023-06-14T01:38:23;5.20;;;2.90;;
20531;SDS011;10424;52.102;8.084;2023-06-14T01:40:53;4.45;;;2.80;;
20531;SDS011;10424;52.102;8.084;2023-06-14T01:43:21;6.40;;;3.00;;
20531;SDS011;10424;52.102;8.084;2023-06-14T01:45:49;4.75;;;3.13;;
20531;SDS011;10424;52.102;8.084;2023-06-14T01:48:17;7.78;;;3.00;;
20531;SDS011;10424;52.102;8.084;2023-06-14T01:50:46;6.07;;;2.85;;
20531;SDS011;10424;52.102;8.084;2023-06-14T01:53:14;3.78;;;2.88;;
20531;SDS011;10424;52.102;8.084;2023-06-14T01:55:42;4.35;;;3.17;;
20531;SDS011;10424;52.102;8.084;2023-06-14T01:58:11;6.93;;;3.05;;
20531;SDS011;10424;52.102;8.084;2023-06-14T02:00:38;9.63;;;3.10;;
20531;SDS011;10424;52.102;8.084;2023-06-14T02:03:08;6.45;;;3.10;;
20531;SDS011;10424;52.102;8.084;2023-06-14T02:05:36;3.78;;;2.78;;
20531;SDS011;10424;52.102;8.084;2023-06-14T02:08:05;8.50;;;3.10;;
20531;SDS011;10424;52.102;8.084;2023-06-14T02:10:32;7.38;;;3.03;;
20531;SDS011;10424;52.102;8.084;2023-06-14T02:12:59;4.55;;;2.95;;
20531;SDS011;10424;52.102;8.084;2023-06-14T02:15:28;4.25;;;3.05;;
20531;SDS011;10424;52.102;8.084;2023-06-14T02:17:59;3.92;;;3.00;;
20531;SDS011;10424;52.102;8.084;2023-06-14T02:20:27;4.55;;;2.97;;
20531;SDS011;10424;52.102;8.084;2023-06-14T02:22:55;4.53;;;2.88;;
20531;SDS011;10424;52.102;8.084;2023-06-14T02:25:22;7.65;;;3.08;;
20531;SDS011;10424;52.102;8.084;2023-06-14T02:27:50;6.25;;;3.30;;
20531;SDS011;10424;52.102;8.084;2023-06-14T02:30:17;4.47;;;2.97;;
20531;SDS011;10424;52.102;8.084;2023-06-14T02:32:46;6.18;;;3.05;;
20531;SDS011;10424;52.102;8.084;2023-06-14T02:35:16;4.07;;;3.05;;
20531;SDS011;10424;52.102;8.084;2023-06-14T02:37:43;6.28;;;3.00;;
20531;SDS011;10424;52.102;8.084;2023-06-14T02:40:11;6.97;;;3.00;;
20531;SDS011;10424;52.102;8.084;2023-06-14T02:42:38;4.40;;;3.00;;
20531;SDS011;10424;52.102;8.084;2023-06-14T02:45:06;6.15;;;3.03;;
20531;SDS011;10424;52.102;8.084;2023-06-14T02:47:34;6.38;;;3.40;;
20531;SDS011;10424;52.102;8.084;2023-06-14T02:50:03;5.55;;;3.20;;
20531;SDS011;10424;52.102;8.084;2023-06-14T02:52:30;3.67;;;2.80;;
20531;SDS011;10424;52.102;8.084;2023-06-14T02:54:58;7.20;;;3.10;;
20531;SDS011;10424;52.102;8.084;2023-06-14T02:57:25;5.18;;;3.20;;
20531;SDS011;10424;52.102;8.084;2023-06-14T02:59:53;5.28;;;2.95;;
20531;SDS011;10424;52.102;8.084;2023-06-14T03:02:20;8.30;;;3.28;;
20531;SDS011;10424;52.102;8.084;2023-06-14T03:22:59;5.32;;;3.00;;
20531;SDS011;10424;52.102;8.084;2023-06-14T03:25:27;6.97;;;3.53;;
20531;SDS011;10424;52.102;8.084;2023-06-14T03:27:55;4.05;;;3.03;;
20531;SDS011;10424;52.102;8.084;2023-06-14T03:30:22;5.05;;;3.20;;
20531;SDS011;10424;52.102;8.084;2023-06-14T03:32:50;4.65;;;3.15;;
20531;SDS011;10424;52.102;8.084;2023-06-14T03:35:18;5.10;;;2.85;;
20531;SDS011;10424;52.102;8.084;2023-06-14T03:37:45;7.25;;;3.10;;
20531;SDS011;10424;52.102;8.084;2023-06-14T03:40:14;7.68;;;3.28;;
20531;SDS011;10424;52.102;8.084;2023-06-14T03:42:42;3.38;;;2.70;;
20531;SDS011;10424;52.102;8.084;2023-06-14T03:45:09;6.75;;;3.00;;
20531;SDS011;10424;52.102;8.084;2023-06-14T03:47:37;5.63;;;3.03;;
20531;SDS011;10424;52.102;8.084;2023-06-14T03:50:04;6.10;;;2.80;;
20531;SDS011;10424;52.102;8.084;2023-06-14T03:52:32;5.43;;;3.30;;
20531;SDS011;10424;52.102;8.084;2023-06-14T03:54:59;6.07;;;2.88;;
20531;SDS011;10424;52.102;8.084;2023-06-14T03:57:29;3.05;;;2.58;;
20531;SDS011;10424;52.102;8.084;2023-06-14T03:59:56;4.70;;;2.90;;
20531;SDS011;10424;52.102;8.084;2023-06-14T04:02:23;5.30;;;2.70;;
20531;SDS011;10424;52.102;8.084;2023-06-14T04:04:53;5.95;;;2.97;;
20531;SDS011;10424;52.102;8.084;2023-06-14T04:07:21;4.57;;;2.75;;
20531;SDS011;10424;52.102;8.084;2023-06-14T04:09:48;4.47;;;2.80;;
20531;SDS011;10424;52.102;8.084;2023-06-14T04:12:15;3.92;;;2.40;;
20531;SDS011;10424;52.102;8.084;2023-06-14T04:14:44;4.40;;;2.55;;
20531;SDS011;10424;52.102;8.084;2023-06-14T04:17:11;6.90;;;2.67;;
20531;SDS011;10424;52.102;8.084;2023-06-14T04:19:39;5.75;;;2.60;;
20531;SDS011;10424;52.102;8.084;2023-06-14T04:22:06;4.82;;;2.95;;
20531;SDS011;10424;52.102;8.084;2023-06-14T04:24:35;5.05;;;2.72;;
20531;SDS011;10424;52.102;8.084;2023-06-14T04:27:03;4.53;;;2.60;;
20531;SDS011;10424;52.102;8.084;2023-06-14T04:29:31;7.03;;;2.92;;
20531;SDS011;10424;52.102;8.084;2023-06-14T04:32:00;6.20;;;3.08;;
20531;SDS011;10424;52.102;8.084;2023-06-14T04:34:28;4.20;;;2.78;;
20531;SDS011;10424;52.102;8.084;2023-06-14T04:36:56;10.40;;;3.13;;
20531;SDS011;10424;52.102;8.084;2023-06-14T04:39:24;4.95;;;2.80;;
20531;SDS011;10424;52.102;8.084;2023-06-14T04:41:52;7.60;;;2.70;;
20531;SDS011;10424;52.102;8.084;2023-06-14T04:44:22;6.72;;;2.70;;
20531;SDS011;10424;52.102;8.084;2023-06-14T04:49:24;4.18;;;3.00;;
20531;SDS011;10424;52.102;8.084;2023-06-14T04:51:52;6.22;;;2.67;;
20531;SDS011;10424;52.102;8.084;2023-06-14T04:54:22;6.10;;;2.60;;
20531;SDS011;10424;52.102;8.084;2023-06-14T04:56:50;5.10;;;2.90;;
20531;SDS011;10424;52.102;8.084;2023-06-14T04:59:18;4.47;;;2.33;;
20531;SDS011;10424;52.102;8.084;2023-06-14T05:01:45;3.97;;;2.70;;
20531;SDS011;10424;52.102;8.084;2023-06-14T05:04:13;4.82;;;3.00;;
20531;SDS011;10424;52.102;8.084;2023-06-14T05:06:42;5.70;;;2.63;;
20531;SDS011;10424;52.102;8.084;2023-06-14T05:09:10;8.60;;;3.17;;
20531;SDS011;10424;52.102;8.084;2023-06-14T05:11:37;4.18;;;2.50;;
20531;SDS011;10424;52.102;8.084;2023-06-14T05:14:05;5.30;;;3.00;;
20531;SDS011;10424;52.102;8.084;2023-06-14T05:16:32;5.78;;;2.70;;
20531;SDS011;10424;52.102;8.084;2023-06-14T05:18:59;4.70;;;2.92;;
20531;SDS011;10424;52.102;8.084;2023-06-14T05:21:27;6.28;;;3.10;;
20531;SDS011;10424;52.102;8.084;2023-06-14T05:23:56;5.82;;;2.90;;
20531;SDS011;10424;52.102;8.084;2023-06-14T05:26:24;3.85;;;2.63;;
20531;SDS011;10424;52.102;8.084;2023-06-14T05:28:53;5.75;;;2.92;;
20531;SDS011;10424;52.102;8.084;2023-06-14T05:31:21;6.93;;;2.70;;
20531;SDS011;10424;52.102;8.084;2023-06-14T05:33:49;4.68;;;2.80;;
20531;SDS011;10424;52.102;8.084;2023-06-14T05:36:16;4.07;;;2.90;;
20531;SDS011;10424;52.102;8.084;2023-06-14T05:38:44;3.78;;;2.70;;
20531;SDS011;10424;52.102;8.084;2023-06-14T05:41:13;6.20;;;3.13;;
20531;SDS011;10424;52.102;8.084;2023-06-14T05:43:40;3.80;;;2.97;;
20531;SDS011;10424;52.102;8.084;2023-06-14T05:46:08;6.05;;;3.08;;
20531;SDS011;10424;52.102;8.084;2023-06-14T05:48:35;4.45;;;3.20;;
20531;SDS011;10424;52.102;8.084;2023-06-14T05:51:02;4.90;;;3.00;;
20531;SDS011;10424;52.102;8.084;2023-06-14T05:53:33;8.63;;;3.53;;
20531;SDS011;10424;52.102;8.084;2023-06-14T05:56:01;8.25;;;4.13;;
20531;SDS011;10424;52.102;8.084;2023-06-14T05:58:30;5.93;;;2.80;;
20531;SDS011;10424;52.102;8.084;2023-06-14T06:00:57;5.80;;;3.15;;
20531;SDS011;10424;52.102;8.084;2023-06-14T06:03:25;5.70;;;3.28;;
20531;SDS011;10424;52.102;8.084;2023-06-14T06:05:54;4.45;;;2.80;;
20531;SDS011;10424;52.102;8.084;2023-06-14T06:08:21;4.53;;;2.75;;
20531;SDS011;10424;52.102;8.084;2023-06-14T06:10:49;6.90;;;3.15;;
20531;SDS011;10424;52.102;8.084;2023-06-14T06:13:16;4.68;;;2.83;;
20531;SDS011;10424;52.102;8.084;2023-06-14T06:15:45;4.53;;;2.70;;
20531;SDS011;10424;52.102;8.084;2023-06-14T06:18:12;6.72;;;2.85;;
20531;SDS011;10424;52.102;8.084;2023-06-14T06:20:39;6.30;;;2.88;;
20531;SDS011;10424;52.102;8.084;2023-06-14T06:23:07;6.35;;;3.00;;
20531;SDS011;10424;52.102;8.084;2023-06-14T06:25:34;6.05;;;2.60;;
20531;SDS011;10424;52.102;8.084;2023-06-14T06:28:02;4.13;;;2.60;;
20531;SDS011;10424;52.102;8.084;2023-06-14T06:30:29;6.38;;;2.55;;
20531;SDS011;10424;52.102;8.084;2023-06-14T06:32:58;3.33;;;2.38;;
20531;SDS011;10424;52.102;8.084;2023-06-14T06:35:25;3.50;;;2.40;;
20531;SDS011;10424;52.102;8.084;2023-06-14T06:37:54;7.55;;;2.50;;
20531;SDS011;10424;52.102;8.084;2023-06-14T06:40:21;5.53;;;2.45;;
20531;SDS011;10424;52.102;8.084;2023-06-14T06:42:48;6.55;;;2.42;;
20531;SDS011;10424;52.102;8.084;2023-06-14T06:45:16;2.63;;;2.00;;
20531;SDS011;10424;52.102;8.084;2023-06-14T06:47:43;5.05;;;2.30;;
20531;SDS011;10424;52.102;8.084;2023-06-14T06:50:12;3.53;;;2.05;;
20531;SDS011;10424;52.102;8.084;2023-06-14T06:52:39;3.83;;;2.30;;
20531;SDS011;10424;52.102;8.084;2023-06-14T06:55:07;3.60;;;2.40;;
20531;SDS011;10424;52.102;8.084;2023-06-14T06:57:36;2.95;;;2.38;;
20531;SDS011;10424;52.102;8.084;2023-06-14T07:00:03;3.03;;;2.33;;
20531;SDS011;10424;52.102;8.084;2023-06-14T07:02:33;2.35;;;1.83;;
20531;SDS011;10424;52.102;8.084;2023-06-14T07:05:00;3.42;;;2.30;;
20531;SDS011;10424;52.102;8.084;2023-06-14T07:07:29;4.00;;;2.03;;
20531;SDS011;10424;52.102;8.084;2023-06-14T07:09:56;6.13;;;2.30;;
20531;SDS011;10424;52.102;8.084;2023-06-14T07:12:23;5.00;;;2.20;;
20531;SDS011;10424;52.102;8.084;2023-06-14T07:14:51;2.53;;;2.10;;
20531;SDS011;10424;52.102;8.084;2023-06-14T07:17:18;4.43;;;2.13;;
20531;SDS011;10424;52.102;8.084;2023-06-14T07:19:46;7.03;;;2.10;;
20531;SDS011;10424;52.102;8.084;2023-06-14T07:22:13;2.97;;;2.20;;
20531;SDS011;10424;52.102;8.084;2023-06-14T07:24:42;3.58;;;1.80;;
20531;SDS011;10424;52.102;8.084;2023-06-14T07:27:09;4.22;;;1.80;;
20531;SDS011;10424;52.102;8.084;2023-06-14T07:29:38;4.85;;;1.60;;
20531;SDS011;10424;52.102;8.084;2023-06-14T07:32:06;3.38;;;1.85;;
20531;SDS011;10424;52.102;8.084;2023-06-14T07:34:33;4.18;;;1.90;;
20531;SDS011;10424;52.102;8.084;2023-06-14T07:37:00;5.18;;;1.77;;
20531;SDS011;10424;52.102;8.084;2023-06-14T07:39:28;3.65;;;1.85;;
20531;SDS011;10424;52.102;8.084;2023-06-14T07:41:56;2.90;;;1.75;;
20531;SDS011;10424;52.102;8.084;2023-06-14T07:44:24;2.63;;;1.70;;
20531;SDS011;10424;52.102;8.084;2023-06-14T07:46:51;4.10;;;1.80;;
20531;SDS011;10424;52.102;8.084;2023-06-14T07:49:18;4.25;;;1.90;;
20531;SDS011;10424;52.102;8.084;2023-06-14T07:51:45;5.38;;;1.60;;
20531;SDS011;10424;52.102;8.084;2023-06-14T07:54:13;4.93;;;1.70;;
20531;SDS011;10424;52.102;8.084;2023-06-14T07:56:41;2.42;;;1.75;;
20531;SDS011;10424;52.102;8.084;2023-06-14T07:59:09;3.58;;;1.50;;
20531;SDS011;10424;52.102;8.084;2023-06-14T08:01:37;2.45;;;1.40;;
20531;SDS011;10424;52.102;8.084;2023-06-14T08:04:05;1.98;;;1.30;;
20531;SDS011;10424;52.102;8.084;2023-06-14T08:06:32;7.32;;;1.48;;
20531;SDS011;10424;52.102;8.084;2023-06-14T08:09:00;2.10;;;1.50;;
20531;SDS011;10424;52.102;8.084;2023-06-14T08:11:27;4.60;;;1.48;;
20531;SDS011;10424;52.102;8.084;2023-06-14T08:13:54;3.20;;;1.45;;
20531;SDS011;10424;52.102;8.084;2023-06-14T08:16:23;4.55;;;1.65;;
20531;SDS011;10424;52.102;8.084;2023-06-14T08:18:50;4.45;;;1.20;;
20531;SDS011;10424;52.102;8.084;2023-06-14T08:21:17;2.58;;;1.35;;
20531;SDS011;10424;52.102;8.084;2023-06-14T08:23:45;2.10;;;1.40;;
20531;SDS011;10424;52.102;8.084;2023-06-14T08:26:12;4.10;;;1.60;;
20531;SDS011;10424;52.102;8.084;2023-06-14T08:28:40;3.25;;;1.50;;
20531;SDS011;10424;52.102;8.084;2023-06-14T08:31:08;2.45;;;1.45;;
20531;SDS011;10424;52.102;8.084;2023-06-14T08:33:37;3.03;;;1.30;;
